Aérodrome :
LOGIN :

S'inscrire | Disclaimer

   EN    FR    IT 

 










Légende :    VFR   VFR Marginal   IFR   IFR Intensif   IFR Très Intensif
Visi : 
Plafond : 
>= 8 km
>= 3000ft
5 à 8 km
1000 à 3000 ft
1500m à 5 km
500 à 1000 ft
800 à 1500m
200 à 500 ft
< 800m
< 200 ft
Symboles :   Orages  Brouillard  Fortes neiges  Fortes précipitations  Vent > 20 kt
SIGMETs :   Divers  Orages  Givrage  Turbulence  Onde Orograph.  Cendres Volcan.







- Altitude de l'aérodrome : 302 ft
- Code IATA : CGN


EDDK - Cologne Bonn

DERNIER METAR :
  • 191020Z 29012KT 9999 FEW017 SCT040 07/04 Q1018 NOSIG

METARs EXPIRÉS :
  • 190950Z 28011KT 9999 FEW016 06/04 Q1017 NOSIG
  • 190920Z 28009KT 9999 FEW016 05/03 Q1017 NOSIG
  • 190850Z 28009KT 9999 VCSH FEW016 SCT028TCU 05/03 Q1017 NOSIG
  • 190820Z 28010KT 9999 FEW016 SCT025TCU 05/03 Q1017 NOSIG
  • 190750Z 29009KT 9999 -SHRA SCT024TCU SCT045 05/03 Q1017 NOSIG

TAF TAF EDDK
Valide du 19 à 06h jusqu'au 20 à 12h UTC


190500Z 1906/2012 28007KT 9999 FEW010
BECMG 1908/1911 28013KT
TEMPO 1912/1915 28015G25KT SHRA BKN020CB
BECMG 1917/1920 27008KT
BECMG 2007/2009 20007KT
PROB30
TEMPO 2010/2012 RA BKN012
Pas de NOTAMs connus pour ce terrain.



MET'MAP, la Météo Aéronautique d'un coup d'oeil ! - Copyright ORBIFLY Décembre 2007 - Disclaimer

ORBIFLY MET'MAP TEAM :

Programmation & Développement : Alexandra Zaïnal
Conception & Développement : Baudouin d'Aumeries
Co-Programmation & Développement : Marc-Olivier Méhu
Soutien technique & logistique : Manuel Goepfert

Contact : metmap@orbifly.com




SOURCES & CREDITS :

   NOAA